Time;durP1;ratioP1;P1;durP2;ratioP2;P2;SDS_P1;SDS_P2;PMS_P1;PMS_P2;Temp;Humidity;BMP_temperature;BMP_pressure;BME280_temperature;BME280_humidity;BME280_pressure;Samples;Min_cycle;Max_cycle;Signal;HPM_P1;HPM_P2
2023/03/19 00:00:00;;;;;;;7.88;4.43;;;6.80;99.90;;;;;;4982843;28;20054;-73
2023/03/19 00:02:25;;;;;;;6.10;4.78;;;6.70;99.90;;;;;;4980162;28;20132;-74
2023/03/19 00:04:51;;;;;;;9.27;5.13;;;6.80;99.90;;;;;;4983054;28;20481;-73
2023/03/19 00:07:17;;;;;;;6.40;3.95;;;6.80;99.90;;;;;;4991696;28;20022;-73
2023/03/19 00:09:43;;;;;;;9.02;4.32;;;6.70;99.90;;;;;;4995785;28;20125;-73
2023/03/19 00:12:10;;;;;;;3.97;3.55;;;6.80;99.90;;;;;;4995155;28;20042;-74
2023/03/19 00:14:37;;;;;;;5.18;3.80;;;6.70;99.90;;;;;;4990978;28;20031;-73
2023/03/19 00:17:02;;;;;;;6.75;4.30;;;6.70;99.90;;;;;;4999631;28;20034;-73
2023/03/19 00:19:28;;;;;;;4.57;3.50;;;6.70;99.90;;;;;;4990046;28;20033;-73
2023/03/19 00:21:55;;;;;;;4.60;3.50;;;6.80;99.90;;;;;;4991170;28;20049;-75
2023/03/19 00:24:20;;;;;;;4.82;3.58;;;6.70;99.90;;;;;;4986814;28;20158;-74
2023/03/19 00:26:46;;;;;;;4.70;3.70;;;6.60;99.90;;;;;;4989025;28;20067;-74
2023/03/19 00:29:13;;;;;;;8.27;3.85;;;6.70;99.90;;;;;;4987217;28;20121;-73
2023/03/19 00:31:40;;;;;;;7.88;3.85;;;6.70;99.90;;;;;;4989466;28;20509;-74
2023/03/19 00:34:07;;;;;;;5.28;3.53;;;6.70;99.90;;;;;;4990292;28;20031;-74
2023/03/19 00:36:33;;;;;;;7.18;3.55;;;6.60;99.90;;;;;;4988766;28;20109;-74
2023/03/19 00:38:58;;;;;;;5.22;3.95;;;6.60;99.90;;;;;;4983841;28;20117;-73
2023/03/19 00:41:25;;;;;;;4.95;3.58;;;6.60;99.90;;;;;;4994102;28;20502;-74
2023/03/19 00:43:55;;;;;;;9.43;3.70;;;6.60;99.90;;;;;;4988362;28;20053;-74
2023/03/19 00:46:21;;;;;;;4.80;3.50;;;6.50;99.90;;;;;;4991731;28;20042;-73
2023/03/19 00:48:47;;;;;;;5.35;3.15;;;6.50;99.90;;;;;;4996166;28;20125;-73
2023/03/19 00:51:13;;;;;;;6.80;3.53;;;6.60;99.90;;;;;;4990139;28;20865;-73
2023/03/19 00:53:41;;;;;;;6.38;3.58;;;6.60;99.90;;;;;;4990020;28;20030;-74
2023/03/19 00:56:07;;;;;;;6.40;3.28;;;6.50;99.90;;;;;;4992842;28;21530;-73
2023/03/19 00:58:34;;;;;;;5.38;3.92;;;6.50;99.90;;;;;;4987529;28;20038;-73
2023/03/19 01:01:00;;;;;;;6.60;3.83;;;6.50;99.90;;;;;;4999937;28;20101;-74
2023/03/19 01:03:26;;;;;;;4.05;3.60;;;6.50;99.90;;;;;;4993283;28;20038;-73
2023/03/19 01:05:52;;;;;;;6.30;4.90;;;6.60;99.90;;;;;;4996555;28;20466;-73
2023/03/19 01:08:18;;;;;;;10.38;4.47;;;6.60;99.90;;;;;;4991145;28;20049;-73
2023/03/19 01:10:44;;;;;;;7.45;4.32;;;6.70;99.90;;;;;;4988831;28;20494;-73
2023/03/19 01:13:11;;;;;;;6.63;4.72;;;6.70;99.90;;;;;;4991174;28;20085;-73
2023/03/19 01:15:41;;;;;;;8.00;5.03;;;6.80;99.90;;;;;;4992498;28;20030;-73
2023/03/19 01:18:07;;;;;;;8.70;4.72;;;6.80;99.90;;;;;;4992521;28;20569;-74
2023/03/19 01:20:34;;;;;;;5.47;4.50;;;6.80;99.90;;;;;;4990364;28;20475;-74
2023/03/19 01:23:00;;;;;;;6.13;4.50;;;6.80;99.90;;;;;;4988506;28;20535;-73
2023/03/19 01:25:26;;;;;;;9.90;5.20;;;6.80;99.90;;;;;;4991045;28;20030;-73
2023/03/19 01:27:52;;;;;;;6.55;4.93;;;6.80;99.90;;;;;;4993531;28;20071;-73
2023/03/19 01:30:18;;;;;;;7.28;4.80;;;6.80;99.90;;;;;;4991220;28;20086;-74
2023/03/19 01:32:43;;;;;;;8.23;5.10;;;6.80;99.90;;;;;;4991077;28;20074;-74
2023/03/19 01:35:09;;;;;;;7.70;4.85;;;6.80;99.90;;;;;;4991631;28;20423;-74
2023/03/19 01:37:36;;;;;;;6.72;4.70;;;6.70;99.90;;;;;;4986544;28;20155;-74
2023/03/19 01:40:04;;;;;;;6.35;4.70;;;6.80;99.90;;;;;;4990844;28;20050;-73
2023/03/19 01:42:30;;;;;;;9.63;5.43;;;6.80;99.90;;;;;;4987040;28;20047;-73
2023/03/19 01:44:56;;;;;;;9.93;4.72;;;6.70;99.90;;;;;;4994668;28;20046;-73
2023/03/19 01:47:38;;;;;;;8.18;5.03;;;6.70;99.90;;;;;;4992011;28;20026;-73
2023/03/19 01:50:05;;;;;;;10.75;4.75;;;6.60;99.90;;;;;;4992720;28;20086;-74
2023/03/19 01:52:33;;;;;;;7.50;5.10;;;6.60;99.90;;;;;;4990326;28;20034;-74
2023/03/19 01:55:02;;;;;;;8.45;5.15;;;6.60;99.90;;;;;;4987530;28;20093;-74
2023/03/19 01:57:28;;;;;;;;;;;6.60;99.90;;;;;;4984747;28;20037;-73
2023/03/19 01:59:56;;;;;;;8.40;4.75;;;6.50;99.90;;;;;;4990177;28;20350;-73
2023/03/19 02:02:34;;;;;;;6.85;5.07;;;6.50;99.90;;;;;;4999074;28;20057;-78
2023/03/19 02:05:12;;;;;;;13.63;5.32;;;6.60;99.90;;;;;;5000181;28;20060;-78
2023/03/19 02:07:40;;;;;;;8.07;5.60;;;6.60;99.90;;;;;;4998345;28;20053;-77
2023/03/19 02:10:08;;;;;;;11.82;5.78;;;6.60;99.90;;;;;;4998907;28;20058;-78
2023/03/19 02:12:34;;;;;;;7.85;5.30;;;6.50;99.90;;;;;;4998718;28;20047;-79
2023/03/19 02:15:00;;;;;;;8.48;5.75;;;6.50;99.90;;;;;;4999850;28;20038;-78
2023/03/19 02:17:28;;;;;;;7.22;4.55;;;6.60;99.90;;;;;;4996500;28;20027;-78
2023/03/19 02:19:53;;;;;;;9.52;5.65;;;6.60;99.90;;;;;;4996091;28;20038;-79
2023/03/19 02:22:23;;;;;;;7.57;4.88;;;6.60;99.90;;;;;;4997241;28;20475;-78
2023/03/19 02:24:57;;;;;;;8.65;5.18;;;6.70;99.90;;;;;;4998750;28;20152;-78
2023/03/19 02:27:22;;;;;;;8.05;4.93;;;6.70;99.90;;;;;;4997763;28;20065;-78
2023/03/19 02:29:48;;;;;;;9.57;5.70;;;6.70;99.90;;;;;;4997364;28;20046;-78
2023/03/19 02:32:14;;;;;;;8.13;5.05;;;6.70;99.90;;;;;;4998957;28;20046;-77
2023/03/19 02:34:41;;;;;;;9.13;4.90;;;6.70;99.90;;;;;;4997221;28;20034;-78
2023/03/19 02:37:28;;;;;;;6.97;4.93;;;6.70;99.90;;;;;;4999357;28;20061;-78
2023/03/19 02:40:04;;;;;;;6.97;4.97;;;6.60;99.90;;;;;;5005587;28;20037;-77
2023/03/19 02:42:30;;;;;;;6.68;4.28;;;6.50;99.90;;;;;;4991268;28;20046;-77
2023/03/19 02:44:56;;;;;;;6.70;4.60;;;6.60;99.90;;;;;;4994124;28;20125;-77
2023/03/19 02:47:23;;;;;;;7.35;4.60;;;6.60;99.90;;;;;;4997354;28;20120;-77
2023/03/19 02:49:49;;;;;;;7.30;5.07;;;6.60;99.90;;;;;;5005084;28;20370;-77
2023/03/19 02:52:15;;;;;;;7.38;4.97;;;6.60;99.90;;;;;;4998943;28;20042;-78
2023/03/19 02:54:41;;;;;;;7.85;5.18;;;6.60;99.90;;;;;;5000238;28;20091;-78
2023/03/19 02:57:07;;;;;;;7.50;5.38;;;6.60;99.90;;;;;;4987238;28;20046;-78
2023/03/19 02:59:32;;;;;;;10.02;5.65;;;6.60;99.90;;;;;;4992932;28;20041;-78
2023/03/19 03:01:58;;;;;;;6.28;4.88;;;6.70;99.90;;;;;;4997745;28;20050;-77
2023/03/19 03:04:25;;;;;;;8.98;5.60;;;6.70;99.90;;;;;;5002415;28;20029;-78
2023/03/19 03:06:51;;;;;;;7.57;5.20;;;6.70;99.90;;;;;;4998324;28;20030;-78
2023/03/19 03:09:17;;;;;;;8.32;5.03;;;6.70;99.90;;;;;;4997103;28;20074;-78
2023/03/19 03:11:43;;;;;;;6.50;5.10;;;6.70;99.90;;;;;;4997870;28;20045;-78
2023/03/19 03:14:09;;;;;;;7.72;5.40;;;6.80;99.90;;;;;;4994288;28;20034;-78
2023/03/19 03:16:35;;;;;;;7.22;5.18;;;6.80;99.90;;;;;;4998215;28;20034;-78
2023/03/19 03:19:01;;;;;;;10.68;6.63;;;6.80;99.90;;;;;;4999939;28;20030;-78
2023/03/19 03:21:26;;;;;;;9.63;5.20;;;6.80;99.90;;;;;;5000918;28;20113;-77
2023/03/19 03:23:52;;;;;;;7.55;5.05;;;6.80;99.90;;;;;;4998223;28;20108;-78
2023/03/19 03:26:18;;;;;;;10.48;4.82;;;6.80;99.90;;;;;;4993016;28;20035;-78
2023/03/19 03:28:43;;;;;;;7.78;4.53;;;6.80;99.90;;;;;;4997184;28;20061;-77
2023/03/19 03:31:09;;;;;;;7.13;4.57;;;6.70;99.90;;;;;;4998105;28;20089;-78
2023/03/19 03:33:35;;;;;;;8.73;4.93;;;6.80;99.90;;;;;;5000270;28;20113;-78
2023/03/19 03:36:01;;;;;;;8.40;4.43;;;6.80;99.90;;;;;;4997461;28;20034;-78
2023/03/19 03:38:27;;;;;;;7.25;4.78;;;6.70;99.90;;;;;;5000061;28;20091;-78
2023/03/19 03:40:53;;;;;;;5.47;4.50;;;6.70;99.90;;;;;;5003724;28;20398;-78
2023/03/19 03:43:20;;;;;;;9.43;5.30;;;6.70;99.90;;;;;;4995407;28;20015;-78
2023/03/19 03:45:47;;;;;;;6.47;4.38;;;6.60;99.90;;;;;;5000663;28;20066;-78
2023/03/19 03:48:13;;;;;;;7.07;4.97;;;6.60;99.90;;;;;;5004150;28;20026;-78
2023/03/19 03:50:39;;;;;;;7.10;4.28;;;6.60;99.90;;;;;;5005324;28;20030;-78
2023/03/19 03:53:05;;;;;;;7.28;4.50;;;6.60;99.90;;;;;;5000036;28;20038;-78
2023/03/19 03:55:31;;;;;;;5.85;3.63;;;6.60;99.90;;;;;;5001213;28;20030;-78
2023/03/19 03:57:57;;;;;;;6.85;4.32;;;6.60;99.90;;;;;;4997819;28;20070;-78
2023/03/19 04:00:24;;;;;;;7.63;4.45;;;6.70;99.90;;;;;;4999287;28;20037;-78
2023/03/19 04:02:50;;;;;;;9.70;4.70;;;6.70;99.90;;;;;;5000781;28;20035;-78
2023/03/19 04:05:16;;;;;;;7.57;4.75;;;6.70;99.90;;;;;;5000046;28;20038;-78
2023/03/19 04:07:42;;;;;;;9.32;4.75;;;6.70;99.90;;;;;;4998517;28;20041;-78
2023/03/19 04:10:09;;;;;;;6.53;4.65;;;6.70;99.90;;;;;;4999432;28;20050;-78
2023/03/19 04:12:36;;;;;;;9.27;5.40;;;6.80;99.90;;;;;;4999050;28;20050;-78
2023/03/19 04:15:03;;;;;;;8.80;4.82;;;6.80;99.90;;;;;;5003724;28;20026;-77
2023/03/19 04:17:29;;;;;;;7.35;4.85;;;6.80;99.90;;;;;;5005990;28;20030;-78
2023/03/19 04:19:55;;;;;;;9.65;5.45;;;6.80;99.90;;;;;;5003085;28;20053;-78
2023/03/19 04:22:20;;;;;;;8.23;5.78;;;6.80;99.90;;;;;;5000734;28;20040;-78
2023/03/19 04:24:46;;;;;;;12.40;6.22;;;6.90;99.90;;;;;;5028347;28;20026;-78
2023/03/19 04:27:11;;;;;;;10.65;6.30;;;6.90;99.90;;;;;;5005350;28;20034;-78
2023/03/19 04:29:37;;;;;;;7.45;5.07;;;6.90;99.90;;;;;;5002204;28;20033;-78
2023/03/19 04:32:03;;;;;;;8.93;5.90;;;6.90;99.90;;;;;;5000655;28;20046;-78
2023/03/19 04:34:29;;;;;;;11.25;6.63;;;6.90;99.90;;;;;;5003970;28;20056;-77
2023/03/19 04:36:56;;;;;;;9.07;6.80;;;7.00;99.90;;;;;;5000230;28;20030;-77
2023/03/19 04:39:23;;;;;;;14.40;8.10;;;7.00;99.90;;;;;;4999632;28;20026;-77
2023/03/19 04:41:49;;;;;;;13.07;6.88;;;7.00;99.90;;;;;;4997798;28;20006;-78
2023/03/19 04:44:14;;;;;;;10.68;6.38;;;7.00;99.90;;;;;;5000524;28;20056;-78
2023/03/19 04:46:40;;;;;;;9.73;5.60;;;7.00;99.90;;;;;;4996740;28;20110;-78
2023/03/19 04:49:06;;;;;;;9.38;5.63;;;6.90;99.90;;;;;;4994929;28;20470;-78
2023/03/19 04:51:32;;;;;;;6.82;5.28;;;6.90;99.90;;;;;;4998021;28;20602;-78
2023/03/19 04:53:58;;;;;;;8.00;5.78;;;6.90;99.90;;;;;;5000403;28;20154;-78
2023/03/19 04:56:24;;;;;;;9.13;6.28;;;6.90;99.90;;;;;;4995657;28;20038;-78
2023/03/19 04:58:50;;;;;;;13.40;6.32;;;6.90;99.90;;;;;;4996786;28;20129;-78
2023/03/19 05:01:16;;;;;;;7.25;5.63;;;7.00;99.90;;;;;;4995952;28;20041;-78
2023/03/19 05:03:41;;;;;;;11.32;6.60;;;7.00;99.90;;;;;;5001482;28;20026;-78
2023/03/19 05:06:07;;;;;;;7.10;5.90;;;7.00;99.90;;;;;;4993742;28;20042;-78
2023/03/19 05:08:32;;;;;;;10.73;6.55;;;7.00;99.90;;;;;;4995267;28;20071;-78
2023/03/19 05:10:58;;;;;;;9.02;6.68;;;7.00;99.90;;;;;;5000684;28;20054;-78
2023/03/19 05:13:24;;;;;;;11.48;6.50;;;7.00;99.90;;;;;;4993982;28;20037;-78
2023/03/19 05:15:52;;;;;;;11.50;7.65;;;7.00;99.90;;;;;;4995247;28;20026;-77
2023/03/19 05:18:18;;;;;;;12.77;8.07;;;7.00;99.90;;;;;;4997551;28;20050;-78
2023/03/19 05:20:44;;;;;;;20.55;9.57;;;7.00;99.90;;;;;;4996832;28;20057;-78
2023/03/19 05:23:10;;;;;;;10.90;7.55;;;7.00;99.90;;;;;;4998306;28;20045;-78
2023/03/19 05:25:35;;;;;;;19.33;10.98;;;7.10;99.90;;;;;;4995062;28;20062;-78
2023/03/19 05:28:02;;;;;;;15.30;9.90;;;7.10;99.90;;;;;;4998018;28;20039;-78
2023/03/19 05:30:28;;;;;;;15.40;10.45;;;7.10;99.90;;;;;;4990817;28;20035;-78
2023/03/19 05:32:56;;;;;;;12.45;7.68;;;7.10;99.90;;;;;;4997426;28;21689;-78
2023/03/19 05:35:22;;;;;;;9.50;7.05;;;7.20;99.90;;;;;;5003001;28;20022;-77
2023/03/19 05:37:47;;;;;;;9.77;6.90;;;7.20;99.90;;;;;;4997098;28;20024;-77
2023/03/19 05:40:13;;;;;;;12.93;7.22;;;7.20;99.90;;;;;;4997272;28;20041;-78
2023/03/19 05:42:39;;;;;;;10.00;6.15;;;7.20;99.90;;;;;;4996080;28;20030;-78
2023/03/19 05:45:05;;;;;;;10.95;7.35;;;7.30;99.90;;;;;;4996033;28;20042;-78
2023/03/19 05:47:30;;;;;;;13.38;6.55;;;7.30;99.90;;;;;;4997317;28;20038;-78
2023/03/19 05:49:56;;;;;;;10.98;6.35;;;7.40;99.90;;;;;;4998216;28;20057;-78
2023/03/19 05:52:22;;;;;;;7.63;6.35;;;7.50;99.90;;;;;;4997285;28;20053;-77
2023/03/19 05:54:48;;;;;;;10.35;6.30;;;7.50;99.90;;;;;;5003594;28;20042;-76
2023/03/19 05:57:15;;;;;;;9.60;6.40;;;7.60;99.90;;;;;;4991641;28;21632;-78
2023/03/19 05:59:40;;;;;;;10.95;6.47;;;7.70;99.90;;;;;;4989711;28;20076;-77
2023/03/19 06:02:06;;;;;;;9.27;5.93;;;7.70;99.90;;;;;;4993088;28;20034;-78
2023/03/19 06:04:32;;;;;;;8.75;6.78;;;7.70;99.90;;;;;;5000899;28;20117;-77
2023/03/19 06:06:57;;;;;;;9.18;6.50;;;7.80;99.90;;;;;;4999945;28;20026;-78
2023/03/19 06:09:23;;;;;;;8.40;6.88;;;7.80;99.90;;;;;;5008025;28;20058;-77
2023/03/19 06:11:49;;;;;;;9.13;6.32;;;7.80;99.90;;;;;;5026691;28;20062;-78
2023/03/19 06:14:15;;;;;;;7.68;6.00;;;7.80;99.90;;;;;;4999579;28;20054;-77
2023/03/19 06:16:40;;;;;;;9.88;6.07;;;7.80;99.90;;;;;;4998204;28;20576;-77
2023/03/19 06:19:06;;;;;;;10.73;6.38;;;7.80;99.90;;;;;;5001546;28;20041;-77
2023/03/19 06:21:31;;;;;;;14.90;6.53;;;7.90;99.90;;;;;;4994787;28;20065;-78
2023/03/19 06:23:57;;;;;;;9.05;6.38;;;7.90;99.90;;;;;;4995391;28;20034;-77
2023/03/19 06:26:24;;;;;;;9.25;6.18;;;7.90;99.90;;;;;;5000196;28;20100;-77
2023/03/19 06:28:50;;;;;;;7.55;5.35;;;8.00;99.90;;;;;;4997664;28;20014;-76
2023/03/19 06:31:15;;;;;;;12.10;6.47;;;8.00;99.90;;;;;;4995753;28;20048;-76
2023/03/19 06:33:41;;;;;;;7.57;5.82;;;8.00;99.90;;;;;;4998531;28;20046;-76
2023/03/19 06:36:07;;;;;;;8.73;6.03;;;8.00;99.90;;;;;;4997747;28;20122;-76
2023/03/19 06:38:34;;;;;;;11.10;6.20;;;8.10;99.90;;;;;;5003376;28;20042;-76
2023/03/19 06:41:00;;;;;;;8.80;6.05;;;8.00;99.90;;;;;;5001837;28;20110;-75
2023/03/19 06:43:26;;;;;;;8.45;6.50;;;7.90;99.90;;;;;;5000658;28;20082;-75
2023/03/19 06:45:51;;;;;;;11.65;7.13;;;7.90;99.90;;;;;;4995447;28;20153;-75
2023/03/19 06:48:17;;;;;;;8.50;5.97;;;7.90;99.90;;;;;;4989822;28;20038;-76
2023/03/19 06:50:45;;;;;;;8.07;6.05;;;8.00;99.90;;;;;;4988722;28;20026;-76
2023/03/19 06:53:11;;;;;;;10.93;6.40;;;8.00;99.90;;;;;;4991529;28;20078;-76
2023/03/19 06:55:36;;;;;;;9.57;5.80;;;8.00;99.90;;;;;;5002372;28;20022;-76
2023/03/19 06:58:02;;;;;;;8.80;6.05;;;8.10;99.90;;;;;;4995010;28;20080;-76
2023/03/19 07:00:28;;;;;;;9.80;5.97;;;8.10;99.90;;;;;;5002939;28;20022;-76
2023/03/19 07:02:53;;;;;;;11.82;5.68;;;8.10;99.90;;;;;;4993914;28;20026;-76
2023/03/19 07:05:19;;;;;;;11.15;6.55;;;8.10;99.90;;;;;;4991501;28;20069;-77
2023/03/19 07:07:44;;;;;;;6.40;5.10;;;8.10;99.90;;;;;;4996007;28;20089;-76
2023/03/19 07:10:10;;;;;;;10.27;5.85;;;8.10;99.90;;;;;;5000221;28;20422;-77
2023/03/19 07:12:36;;;;;;;8.65;5.63;;;8.20;99.90;;;;;;4996948;28;20162;-77
2023/03/19 07:15:02;;;;;;;7.65;5.35;;;8.20;99.90;;;;;;4994782;28;20038;-76
2023/03/19 07:17:27;;;;;;;9.25;5.32;;;8.20;99.90;;;;;;4992825;28;20041;-77
2023/03/19 07:19:53;;;;;;;8.05;5.53;;;8.30;99.90;;;;;;5025475;28;20045;-78
2023/03/19 07:22:19;;;;;;;10.57;5.97;;;8.40;99.90;;;;;;4999865;28;20029;-78
2023/03/19 07:24:44;;;;;;;12.10;5.65;;;8.40;99.90;;;;;;4994299;28;20030;-77
2023/03/19 07:27:10;;;;;;;9.23;6.25;;;8.50;99.90;;;;;;4993208;28;20165;-78
2023/03/19 07:29:36;;;;;;;9.40;6.57;;;8.50;99.90;;;;;;4995790;28;20030;-77
2023/03/19 07:32:02;;;;;;;7.75;4.97;;;8.50;99.90;;;;;;4993069;28;20120;-77
2023/03/19 07:34:28;;;;;;;7.15;5.55;;;8.50;99.90;;;;;;4994647;28;20098;-77
2023/03/19 07:36:53;;;;;;;7.28;5.63;;;8.50;99.90;;;;;;4994661;28;20421;-77
2023/03/19 07:39:19;;;;;;;9.02;5.20;;;8.50;99.90;;;;;;4993580;28;20110;-78
2023/03/19 07:41:48;;;;;;;7.35;5.13;;;8.60;99.90;;;;;;4993480;28;20043;-78
2023/03/19 07:44:15;;;;;;;7.65;5.25;;;8.50;99.90;;;;;;4992918;28;20034;-78
2023/03/19 07:46:41;;;;;;;8.38;6.25;;;8.60;99.90;;;;;;4990899;28;20871;-77
2023/03/19 07:49:07;;;;;;;8.70;7.07;;;8.60;99.90;;;;;;4994698;28;20026;-77
2023/03/19 07:51:33;;;;;;;9.60;6.47;;;8.50;99.90;;;;;;4993142;28;20038;-77
2023/03/19 07:53:58;;;;;;;6.60;4.60;;;8.60;99.90;;;;;;4994829;28;20030;-77
2023/03/19 07:56:24;;;;;;;7.43;5.15;;;8.60;99.90;;;;;;4993678;28;20125;-77
2023/03/19 07:58:50;;;;;;;8.43;6.07;;;8.50;99.90;;;;;;4994245;28;20030;-78
2023/03/19 08:01:16;;;;;;;12.73;6.15;;;8.60;99.90;;;;;;4996710;28;20042;-78
2023/03/19 08:03:42;;;;;;;9.70;7.10;;;8.60;99.90;;;;;;4994493;28;20069;-77
2023/03/19 08:06:08;;;;;;;7.65;6.38;;;8.60;99.90;;;;;;4992645;28;20125;-78
2023/03/19 08:08:33;;;;;;;8.90;6.18;;;8.70;99.90;;;;;;4994096;28;20034;-77
2023/03/19 08:11:00;;;;;;;11.30;7.43;;;8.70;99.90;;;;;;4995411;28;20077;-78
2023/03/19 08:13:26;;;;;;;8.60;7.03;;;8.80;99.90;;;;;;4999585;28;20077;-78
2023/03/19 08:15:52;;;;;;;8.88;7.63;;;8.90;99.90;;;;;;5005254;28;20018;-78
2023/03/19 08:18:18;;;;;;;9.60;6.40;;;8.90;99.90;;;;;;4996649;28;20015;-78
2023/03/19 08:20:45;;;;;;;6.85;6.10;;;9.00;99.90;;;;;;5003510;28;20047;-78
2023/03/19 08:23:11;;;;;;;8.30;5.35;;;9.00;99.90;;;;;;5018013;28;20038;-78
2023/03/19 08:25:37;;;;;;;9.02;6.05;;;9.10;99.90;;;;;;5001597;28;20034;-78
2023/03/19 08:28:03;;;;;;;8.73;6.13;;;9.20;99.90;;;;;;4997418;28;20124;-78
2023/03/19 08:30:28;;;;;;;7.30;5.63;;;9.20;99.90;;;;;;4997685;28;20058;-78
2023/03/19 08:32:54;;;;;;;7.85;5.85;;;9.30;99.90;;;;;;4997992;28;20030;-78
2023/03/19 08:35:20;;;;;;;7.72;5.38;;;9.30;99.90;;;;;;4993493;28;20041;-79
2023/03/19 08:37:45;;;;;;;9.65;5.60;;;9.40;99.90;;;;;;4997007;28;20459;-78
2023/03/19 08:40:11;;;;;;;7.75;5.55;;;9.50;99.90;;;;;;4992925;28;20065;-79
2023/03/19 08:42:41;;;;;;;6.70;5.05;;;9.60;99.90;;;;;;4991975;28;20036;-79
2023/03/19 08:45:09;;;;;;;6.70;5.22;;;9.70;99.90;;;;;;4990714;28;20039;-79
2023/03/19 08:47:34;;;;;;;8.32;5.47;;;9.70;99.90;;;;;;4994902;28;20045;-78
2023/03/19 08:50:00;;;;;;;8.00;5.70;;;9.80;99.90;;;;;;5000371;28;20121;-79
2023/03/19 08:52:25;;;;;;;8.77;5.32;;;9.80;99.90;;;;;;5001775;28;20048;-79
2023/03/19 08:54:51;;;;;;;5.75;4.72;;;9.80;99.90;;;;;;4997387;28;20042;-78
2023/03/19 08:57:16;;;;;;;7.25;5.13;;;9.90;99.90;;;;;;5002824;28;20033;-78
2023/03/19 08:59:42;;;;;;;5.20;4.70;;;9.90;99.90;;;;;;4999609;28;20038;-78
2023/03/19 09:02:11;;;;;;;6.65;4.65;;;10.00;99.90;;;;;;5003769;28;20049;-78
2023/03/19 09:04:40;;;;;;;6.10;4.88;;;10.00;99.90;;;;;;5003304;28;20543;-78
2023/03/19 09:07:05;;;;;;;6.68;4.60;;;10.10;99.90;;;;;;4993886;28;20499;-78
2023/03/19 09:09:31;;;;;;;6.93;5.18;;;10.10;99.90;;;;;;4998051;28;20541;-78
2023/03/19 09:11:57;;;;;;;5.35;4.35;;;10.20;99.90;;;;;;4997776;28;20553;-78
2023/03/19 09:14:22;;;;;;;7.47;4.50;;;10.20;99.90;;;;;;4997982;28;20034;-77
2023/03/19 09:16:48;;;;;;;5.03;4.40;;;10.20;99.90;;;;;;4997872;28;20046;-76
2023/03/19 09:19:13;;;;;;;7.63;4.95;;;10.20;99.90;;;;;;4997328;28;20022;-78
2023/03/19 09:21:40;;;;;;;6.88;5.18;;;10.30;99.90;;;;;;4999553;28;20038;-79
2023/03/19 09:24:06;;;;;;;7.90;4.60;;;10.30;99.90;;;;;;4997533;28;20041;-79
2023/03/19 09:26:32;;;;;;;6.68;5.10;;;10.40;99.90;;;;;;4997913;28;20133;-76
2023/03/19 09:28:58;;;;;;;8.40;4.93;;;10.40;99.90;;;;;;4994565;28;20037;-78
2023/03/19 09:31:23;;;;;;;8.23;5.10;;;10.50;99.90;;;;;;4996704;28;20105;-77
2023/03/19 09:33:49;;;;;;;7.13;4.35;;;10.50;99.90;;;;;;4993481;28;20043;-77
2023/03/19 09:36:15;;;;;;;5.70;5.15;;;10.50;99.90;;;;;;5000468;28;20038;-77
2023/03/19 09:38:41;;;;;;;6.82;5.13;;;10.60;99.90;;;;;;5000062;28;20037;-79
2023/03/19 09:41:12;;;;;;;5.93;5.00;;;10.70;99.90;;;;;;5011599;28;20034;-78
2023/03/19 09:44:03;;;;;;;7.40;4.88;;;10.70;99.90;;;;;;5001740;28;20053;-79
2023/03/19 09:46:42;;;;;;;7.80;4.68;;;10.70;99.90;;;;;;4997443;28;20092;-78
2023/03/19 09:49:21;;;;;;;8.25;4.85;;;10.80;99.90;;;;;;4997393;28;20037;-78
2023/03/19 09:51:57;;;;;;;6.43;4.78;;;10.90;99.90;;;;;;4996524;28;20065;-79
2023/03/19 09:54:38;;;;;;;8.10;4.70;;;10.90;99.90;;;;;;4999468;28;20100;-79
2023/03/19 09:57:03;;;;;;;6.95;4.68;;;10.90;99.90;;;;;;4998525;28;20030;-79
2023/03/19 09:59:30;;;;;;;6.07;4.82;;;11.00;99.90;;;;;;5008086;28;20030;-78
2023/03/19 10:02:22;;;;;;;6.55;5.28;;;11.10;99.90;;;;;;4997610;28;20100;-79
2023/03/19 10:05:07;;;;;;;9.60;6.13;;;11.10;99.90;;;;;;4991677;28;20078;-79
2023/03/19 10:07:38;;;;;;;5.60;4.50;;;11.20;99.90;;;;;;4995425;28;20050;-78
2023/03/19 10:10:41;;;;;;;5.50;4.35;;;11.20;99.90;;;;;;4998818;28;20058;-79
2023/03/19 10:13:43;;;;;;;6.03;4.47;;;11.30;99.90;;;;;;4998587;28;20012;-79
2023/03/19 10:16:17;;;;;;;5.53;3.92;;;11.30;99.90;;;;;;4994197;28;20050;-78
2023/03/19 10:18:48;;;;;;;4.47;4.07;;;11.30;99.90;;;;;;4993119;28;20038;-77
2023/03/19 10:21:44;;;;;;;6.70;4.15;;;11.40;99.90;;;;;;4994739;28;20034;-78
2023/03/19 10:24:30;;;;;;;6.82;3.85;;;11.40;99.90;;;;;;4999853;28;20030;-78
2023/03/19 10:27:01;;;;;;;6.78;4.00;;;11.40;99.90;;;;;;4993973;28;20038;-78
2023/03/19 10:29:27;;;;;;;5.72;4.35;;;11.50;99.90;;;;;;4995691;28;20026;-78
2023/03/19 10:32:19;;;;;;;4.40;4.00;;;11.50;99.90;;;;;;4998096;28;20038;-78
2023/03/19 10:34:49;;;;;;;7.40;4.43;;;11.60;99.90;;;;;;4998163;28;20085;-78
2023/03/19 10:37:24;;;;;;;7.47;4.25;;;11.50;99.90;;;;;;4999772;28;20117;-78
2023/03/19 10:39:53;;;;;;;7.10;4.25;;;11.60;99.90;;;;;;4994430;28;20048;-78
2023/03/19 10:42:40;;;;;;;5.85;3.88;;;11.70;99.90;;;;;;4995358;28;20046;-78
2023/03/19 10:45:10;;;;;;;5.63;4.30;;;11.70;99.90;;;;;;4996227;28;20088;-78
2023/03/19 10:47:40;;;;;;;5.15;3.65;;;11.80;99.90;;;;;;4993898;28;20389;-78
2023/03/19 10:50:09;;;;;;;5.15;3.97;;;11.90;99.90;;;;;;4994737;28;20537;-79
2023/03/19 10:52:36;;;;;;;4.32;3.72;;;11.90;99.90;;;;;;4998358;28;20034;-79
2023/03/19 10:55:02;;;;;;;4.53;3.90;;;11.90;99.90;;;;;;4999863;28;20031;-78
2023/03/19 10:57:30;;;;;;;5.88;3.47;;;11.90;99.90;;;;;;4995760;28;20057;-78
2023/03/19 11:00:00;;;;;;;;;;;12.10;99.90;;;;;;4996931;28;20034;-78
2023/03/19 11:02:30;;;;;;;4.93;3.00;;;12.20;99.90;;;;;;4996849;28;19921;-78
2023/03/19 11:05:11;;;;;;;7.25;4.35;;;12.20;99.90;;;;;;4998043;28;20146;-77
2023/03/19 11:07:37;;;;;;;6.03;4.18;;;12.10;99.90;;;;;;4999339;28;20058;-78
2023/03/19 11:10:04;;;;;;;7.95;4.38;;;12.00;99.90;;;;;;5000983;28;20064;-78
2023/03/19 11:12:36;;;;;;;5.55;4.45;;;12.00;99.90;;;;;;4993402;28;20038;-78
2023/03/19 11:15:04;;;;;;;7.05;4.10;;;12.00;99.90;;;;;;4996093;28;20034;-78
2023/03/19 11:17:56;;;;;;;6.85;3.38;;;12.10;99.90;;;;;;4996714;28;20467;-78
2023/03/19 11:20:36;;;;;;;4.10;3.65;;;12.30;99.90;;;;;;4995204;28;20038;-78
2023/03/19 11:23:11;;;;;;;4.70;3.78;;;12.50;99.90;;;;;;4998568;28;20038;-78
2023/03/19 11:25:37;;;;;;;5.85;4.10;;;12.50;99.90;;;;;;4992910;28;20038;-77
2023/03/19 11:28:13;;;;;;;4.35;3.50;;;12.50;99.90;;;;;;4995682;28;20038;-78
2023/03/19 11:30:44;;;;;;;6.65;4.28;;;12.50;99.90;;;;;;4997942;28;20045;-77
2023/03/19 11:33:23;;;;;;;4.68;3.63;;;12.70;99.90;;;;;;4995208;28;20501;-78
2023/03/19 11:36:07;;;;;;;4.85;3.80;;;12.80;99.90;;;;;;5002723;28;20474;-78
2023/03/19 11:38:52;;;;;;;4.75;3.20;;;13.00;99.90;;;;;;5002413;28;20034;-78
2023/03/19 11:41:33;;;;;;;4.18;3.20;;;13.10;99.90;;;;;;5003327;28;20034;-78
2023/03/19 11:44:05;;;;;;;4.78;3.53;;;13.20;99.90;;;;;;4997325;28;20030;-78
2023/03/19 11:46:47;;;;;;;4.97;3.67;;;13.20;99.90;;;;;;4992879;28;20031;-78
2023/03/19 11:49:24;;;;;;;4.22;3.25;;;13.30;99.90;;;;;;4997035;28;20034;-78
2023/03/19 11:52:02;;;;;;;3.30;3.00;;;13.20;99.90;;;;;;4995529;28;20046;-78
2023/03/19 11:54:56;;;;;;;4.22;3.50;;;13.10;99.90;;;;;;4998817;28;20304;-78
2023/03/19 11:57:32;;;;;;;3.88;3.20;;;13.20;99.90;;;;;;5003566;28;20069;-79
2023/03/19 12:00:30;;;;;;;4.00;2.90;;;13.10;99.90;;;;;;5004220;28;20049;-77
2023/03/19 12:03:01;;;;;;;;;;;13.20;99.90;;;;;;4975611;28;20042;-78
2023/03/19 12:05:46;;;;;;;4.78;2.95;;;13.40;99.90;;;;;;4995201;28;19909;-77
2023/03/19 12:08:27;;;;;;;3.47;2.95;;;13.10;99.90;;;;;;5002054;28;20034;-78
2023/03/19 12:11:16;;;;;;;4.65;2.85;;;13.10;99.90;;;;;;5002891;28;20050;-78
2023/03/19 12:14:01;;;;;;;3.83;2.95;;;13.10;99.90;;;;;;4997788;28;20030;-77
2023/03/19 12:16:42;;;;;;;3.70;2.92;;;13.20;99.90;;;;;;5000463;28;20589;-78
2023/03/19 12:19:25;;;;;;;5.05;3.35;;;13.50;99.90;;;;;;4999071;28;20029;-78
2023/03/19 12:22:13;;;;;;;3.92;2.90;;;13.80;99.90;;;;;;5006230;28;20030;-78
2023/03/19 12:24:57;;;;;;;3.83;2.65;;;14.00;99.90;;;;;;5005489;28;20057;-78
2023/03/19 12:27:41;;;;;;;4.45;3.00;;;14.00;99.90;;;;;;4999966;28;20029;-78
2023/03/19 12:30:16;;;;;;;5.55;2.90;;;14.00;99.90;;;;;;4992632;28;20146;-78
2023/03/19 12:32:59;;;;;;;4.88;3.20;;;14.10;99.90;;;;;;4999383;28;20085;-78
2023/03/19 12:35:37;;;;;;;3.38;2.75;;;14.30;99.90;;;;;;4997937;28;20030;-78
2023/03/19 12:38:36;;;;;;;4.90;3.08;;;14.30;99.90;;;;;;4993358;28;20089;-78
2023/03/19 12:41:23;;;;;;;4.22;3.33;;;14.30;99.90;;;;;;5001450;28;20050;-78
2023/03/19 12:44:10;;;;;;;4.63;3.17;;;14.40;99.90;;;;;;5000574;28;20022;-78
2023/03/19 12:46:49;;;;;;;6.93;2.95;;;14.20;99.90;;;;;;5003694;28;20378;-78
2023/03/19 12:49:22;;;;;;;3.50;2.70;;;14.10;99.90;;;;;;4996765;28;20045;-78
2023/03/19 12:52:05;;;;;;;3.20;2.90;;;14.30;99.90;;;;;;5003023;28;20030;-78
2023/03/19 12:54:40;;;;;;;3.75;2.97;;;14.40;99.90;;;;;;5002850;28;20066;-79
2023/03/19 12:57:14;;;;;;;3.95;3.00;;;14.40;99.90;;;;;;4994560;28;20042;-79
2023/03/19 12:59:47;;;;;;;7.80;2.90;;;14.50;99.90;;;;;;4995034;28;20026;-78
2023/03/19 13:02:29;;;;;;;3.00;2.60;;;14.60;99.90;;;;;;5000199;28;20101;-79